Time;durP1;ratioP1;P1;durP2;ratioP2;P2;SDS_P1;SDS_P2;PMS_P1;PMS_P2;Temp;Humidity;BMP_temperature;BMP_pressure;BME280_temperature;BME280_humidity;BME280_pressure;Samples;Min_cycle;Max_cycle;Signal;HPM_P1;HPM_P2
2021/05/31 00:02:14;;;;;;;5.40;4.90;;;;;;;;;;5108458;28;20371;-83
2021/05/31 00:04:40;;;;;;;5.78;5.10;;;;;;;;;;5108452;28;20371;-82
2021/05/31 00:07:13;;;;;;;6.00;4.93;;;;;;;;;;5090346;28;20379;-83
2021/05/31 00:09:41;;;;;;;7.57;5.22;;;;;;;;;;5108466;28;21189;-84
2021/05/31 00:12:08;;;;;;;6.35;5.00;;;;;;;;;;5108397;28;20362;-84
2021/05/31 00:14:34;;;;;;;5.78;5.22;;;;;;;;;;5108343;28;20363;-81
2021/05/31 00:17:00;;;;;;;7.93;5.47;;;;;;;;;;5090462;28;20888;-81
2021/05/31 00:19:26;;;;;;;6.40;5.38;;;;;;;;;;5108695;28;20414;-82
2021/05/31 00:21:52;;;;;;;7.47;5.10;;;;;;;;;;5108321;28;20430;-84
2021/05/31 00:24:19;;;;;;;6.82;5.13;;;;;;;;;;5108453;28;20895;-83
2021/05/31 00:26:45;;;;;;;6.00;5.38;;;;;;;;;;5089969;28;20394;-83
2021/05/31 00:29:11;;;;;;;5.33;4.83;;;;;;;;;;5109909;28;20384;-82
2021/05/31 00:31:37;;;;;;;7.30;5.15;;;;;;;;;;5111800;28;20370;-82
2021/05/31 00:34:03;;;;;;;7.07;5.22;;;;;;;;;;5112207;28;20403;-83
2021/05/31 00:36:29;;;;;;;7.50;5.57;;;;;;;;;;5093995;28;20459;-85
2021/05/31 00:38:55;;;;;;;6.72;5.00;;;;;;;;;;5111776;28;20393;-81
2021/05/31 00:41:22;;;;;;;8.02;5.88;;;;;;;;;;5111831;28;20373;-84
2021/05/31 00:43:48;;;;;;;6.37;5.40;;;;;;;;;;5112027;28;20399;-81
2021/05/31 00:46:14;;;;;;;8.07;5.95;;;;;;;;;;5111815;28;20375;-84
2021/05/31 00:48:40;;;;;;;6.38;5.43;;;;;;;;;;5093579;28;20714;-82
2021/05/31 00:51:09;;;;;;;6.13;5.47;;;;;;;;;;5093452;28;20407;-83
2021/05/31 00:53:35;;;;;;;7.80;5.10;;;;;;;;;;5111373;28;20371;-81
2021/05/31 00:56:01;;;;;;;7.45;5.95;;;;;;;;;;5093495;28;20444;-81
2021/05/31 00:58:28;;;;;;;6.57;5.88;;;;;;;;;;5093385;28;20782;-83
2021/05/31 01:00:58;;;;;;;7.22;5.93;;;;;;;;;;5092906;28;20454;-84
2021/05/31 01:03:25;;;;;;;7.72;5.80;;;;;;;;;;5111233;28;20379;-83
2021/05/31 01:05:51;;;;;;;7.50;5.60;;;;;;;;;;5093113;28;20371;-83
2021/05/31 01:08:21;;;;;;;7.40;5.53;;;;;;;;;;5111692;28;20824;-81
2021/05/31 01:11:00;;;;;;;8.33;6.07;;;;;;;;;;5111663;28;20374;-83
2021/05/31 01:13:32;;;;;;;7.78;5.32;;;;;;;;;;5111346;28;20459;-83
2021/05/31 01:16:18;;;;;;;7.60;5.90;;;;;;;;;;5093348;28;20374;-81
2021/05/31 01:18:46;;;;;;;7.25;5.50;;;;;;;;;;5110900;28;20379;-82
2021/05/31 01:21:24;;;;;;;6.05;5.32;;;;;;;;;;5111666;28;20377;-83
2021/05/31 01:24:10;;;;;;;6.60;4.80;;;;;;;;;;5111386;28;20489;-83
2021/05/31 01:26:54;;;;;;;6.47;5.72;;;;;;;;;;5110894;28;20446;-83
2021/05/31 01:29:25;;;;;;;7.57;6.15;;;;;;;;;;5111201;28;20367;-84
2021/05/31 01:31:54;;;;;;;6.53;5.68;;;;;;;;;;5092392;28;20383;-83
2021/05/31 01:34:22;;;;;;;6.30;5.68;;;;;;;;;;5111239;28;20375;-82
2021/05/31 01:36:50;;;;;;;6.70;5.80;;;;;;;;;;5092531;28;20371;-81
2021/05/31 01:39:19;;;;;;;6.10;5.50;;;;;;;;;;5110922;28;20511;-83
2021/05/31 01:41:45;;;;;;;6.43;5.73;;;;;;;;;;5110253;28;20853;-83
2021/05/31 01:44:12;;;;;;;6.22;5.63;;;;;;;;;;5111122;28;20359;-84
2021/05/31 01:46:40;;;;;;;7.03;5.72;;;;;;;;;;5110674;28;20370;-81
2021/05/31 01:49:06;;;;;;;5.78;5.20;;;;;;;;;;5110910;28;20367;-82
2021/05/31 01:51:32;;;;;;;7.67;6.10;;;;;;;;;;5110443;28;20450;-82
2021/05/31 01:53:58;;;;;;;6.72;6.00;;;;;;;;;;5110508;28;20446;-83
2021/05/31 01:56:24;;;;;;;7.85;6.05;;;;;;;;;;5110513;28;20371;-82
2021/05/31 01:58:51;;;;;;;7.65;6.07;;;;;;;;;;5110290;28;20367;-82
2021/05/31 02:01:17;;;;;;;6.72;5.80;;;;;;;;;;5110395;28;20394;-81
2021/05/31 02:03:43;;;;;;;8.17;6.13;;;;;;;;;;5092077;28;20884;-82
2021/05/31 02:06:10;;;;;;;7.32;5.85;;;;;;;;;;5110303;28;20385;-82
2021/05/31 02:08:36;;;;;;;6.00;5.35;;;;;;;;;;5110291;28;20375;-82
2021/05/31 02:11:07;;;;;;;7.10;5.80;;;;;;;;;;5110051;28;20456;-82
2021/05/31 02:13:35;;;;;;;6.15;5.28;;;;;;;;;;5109592;28;20732;-84
2021/05/31 02:16:03;;;;;;;6.75;5.75;;;;;;;;;;5091859;28;20412;-84
2021/05/31 02:18:41;;;;;;;6.67;5.97;;;;;;;;;;5110298;28;20486;-84
2021/05/31 02:21:08;;;;;;;6.72;5.95;;;;;;;;;;5110188;28;20451;-82
2021/05/31 02:23:35;;;;;;;6.43;5.70;;;;;;;;;;5109736;28;20375;-80
2021/05/31 02:26:01;;;;;;;6.68;5.93;;;;;;;;;;5091824;28;20714;-81
2021/05/31 02:28:27;;;;;;;6.50;5.85;;;;;;;;;;5109939;28;20388;-82
2021/05/31 02:30:53;;;;;;;7.33;5.77;;;;;;;;;;5109826;28;20382;-83
2021/05/31 02:33:22;;;;;;;6.78;5.88;;;;;;;;;;5109461;28;20451;-83
2021/05/31 02:35:49;;;;;;;6.95;6.10;;;;;;;;;;5109588;28;20377;-80
2021/05/31 02:38:15;;;;;;;7.20;5.72;;;;;;;;;;5109768;28;20359;-83
2021/05/31 02:40:41;;;;;;;8.68;6.57;;;;;;;;;;5109708;28;20399;-82
2021/05/31 02:43:10;;;;;;;8.63;6.20;;;;;;;;;;5109589;28;20362;-83
2021/05/31 02:45:37;;;;;;;6.47;5.88;;;;;;;;;;5091438;28;20387;-81
2021/05/31 02:48:04;;;;;;;7.65;6.20;;;;;;;;;;5109332;28;20366;-82
2021/05/31 02:50:30;;;;;;;12.43;6.13;;;;;;;;;;5109697;28;20462;-81
2021/05/31 02:52:57;;;;;;;6.72;5.55;;;;;;;;;;5108670;28;20446;-82
2021/05/31 02:55:24;;;;;;;7.20;5.68;;;;;;;;;;5091132;28;20974;-82
2021/05/31 02:57:50;;;;;;;7.13;6.07;;;;;;;;;;5091024;28;20427;-84
2021/05/31 03:00:17;;;;;;;7.93;5.72;;;;;;;;;;5109479;28;20896;-81
2021/05/31 03:02:44;;;;;;;7.38;5.80;;;;;;;;;;5108970;28;20771;-80
2021/05/31 03:05:11;;;;;;;7.07;6.38;;;;;;;;;;5109348;28;20397;-84
2021/05/31 03:07:37;;;;;;;8.67;6.37;;;;;;;;;;5109254;28;21006;-82
2021/05/31 03:10:03;;;;;;;6.50;5.80;;;;;;;;;;5109404;28;20462;-85
2021/05/31 03:12:29;;;;;;;7.53;6.03;;;;;;;;;;5090862;28;20366;-82
2021/05/31 03:14:55;;;;;;;7.97;5.88;;;;;;;;;;5108997;28;20867;-82
2021/05/31 03:17:21;;;;;;;10.87;6.37;;;;;;;;;;5109054;28;20371;-83
2021/05/31 03:19:47;;;;;;;6.53;5.90;;;;;;;;;;5108759;28;20806;-81
2021/05/31 03:22:13;;;;;;;8.07;6.22;;;;;;;;;;5108886;28;20410;-81
2021/05/31 03:24:39;;;;;;;6.90;5.60;;;;;;;;;;5090522;28;20403;-82
2021/05/31 03:27:06;;;;;;;7.55;6.00;;;;;;;;;;5108919;28;20363;-82
2021/05/31 03:29:32;;;;;;;6.38;5.50;;;;;;;;;;5108994;28;20401;-82
2021/05/31 03:31:58;;;;;;;13.05;6.15;;;;;;;;;;5108629;28;20398;-83
2021/05/31 03:34:24;;;;;;;42.30;9.27;;;;;;;;;;5109032;28;20367;-83
2021/05/31 03:36:50;;;;;;;41.95;8.90;;;;;;;;;;5090445;28;20721;-82
2021/05/31 03:39:16;;;;;;;22.15;7.38;;;;;;;;;;5108824;28;20402;-84
2021/05/31 03:41:42;;;;;;;15.07;6.75;;;;;;;;;;5090210;28;20383;-82
2021/05/31 03:44:09;;;;;;;8.35;5.90;;;;;;;;;;5108785;28;20492;-83
2021/05/31 03:46:35;;;;;;;8.10;6.15;;;;;;;;;;5108665;28;20378;-82
2021/05/31 03:49:01;;;;;;;10.02;6.70;;;;;;;;;;5108546;28;20396;-83
2021/05/31 03:51:27;;;;;;;9.63;6.15;;;;;;;;;;5108708;28;20763;-82
2021/05/31 03:53:53;;;;;;;7.55;5.75;;;;;;;;;;5108709;28;20494;-84
2021/05/31 03:56:19;;;;;;;6.80;6.10;;;;;;;;;;5108746;28;20482;-84
2021/05/31 03:58:46;;;;;;;8.50;5.85;;;;;;;;;;5090058;28;20526;-82
2021/05/31 04:01:13;;;;;;;19.60;7.45;;;;;;;;;;5108744;28;21313;-83
2021/05/31 04:03:40;;;;;;;30.08;8.05;;;;;;;;;;5109020;28;20728;-82
2021/05/31 04:11:35;;;;;;;7.63;6.10;;;;;;;;;;5112836;28;20859;-84
2021/05/31 04:14:07;;;;;;;9.02;5.93;;;;;;;;;;5112618;28;20398;-81
2021/05/31 04:16:34;;;;;;;7.80;5.82;;;;;;;;;;5094165;28;20413;-82
2021/05/31 04:19:00;;;;;;;7.72;5.82;;;;;;;;;;5112367;28;20419;-83
2021/05/31 04:21:26;;;;;;;8.40;5.90;;;;;;;;;;5112249;28;20367;-83
2021/05/31 04:23:53;;;;;;;9.50;5.60;;;;;;;;;;5112132;28;20433;-82
2021/05/31 04:26:19;;;;;;;10.13;6.00;;;;;;;;;;5112306;28;20872;-84
2021/05/31 04:28:45;;;;;;;7.43;5.20;;;;;;;;;;5112263;28;20382;-84
2021/05/31 04:31:11;;;;;;;7.87;5.77;;;;;;;;;;5093972;28;20884;-83
2021/05/31 04:33:37;;;;;;;51.47;9.02;;;;;;;;;;5111912;28;20363;-82
2021/05/31 04:36:04;;;;;;;63.30;10.38;;;;;;;;;;5112028;28;20370;-84
2021/05/31 04:38:30;;;;;;;80.28;11.93;;;;;;;;;;5093645;28;20383;-83
2021/05/31 04:40:56;;;;;;;27.42;7.03;;;;;;;;;;5111736;28;20451;-83
2021/05/31 04:43:22;;;;;;;19.30;6.05;;;;;;;;;;5112021;28;20751;-82
2021/05/31 04:45:48;;;;;;;10.63;4.73;;;;;;;;;;5111755;28;20450;-83
2021/05/31 04:48:14;;;;;;;9.15;5.07;;;;;;;;;;5107190;28;20814;-83
2021/05/31 04:50:40;;;;;;;11.50;4.68;;;;;;;;;;5112530;28;20867;-83
2021/05/31 04:53:06;;;;;;;6.30;5.03;;;;;;;;;;5111700;28;20378;-84
2021/05/31 04:55:33;;;;;;;7.95;4.53;;;;;;;;;;5111912;28;20741;-82
2021/05/31 04:58:01;;;;;;;7.07;4.80;;;;;;;;;;5096681;28;20900;-82
2021/05/31 05:00:27;;;;;;;6.90;4.50;;;;;;;;;;5093184;28;20821;-83
2021/05/31 05:02:53;;;;;;;6.38;4.88;;;;;;;;;;5093055;28;20393;-83
2021/05/31 05:05:19;;;;;;;11.02;5.28;;;;;;;;;;5080014;28;20875;-84
2021/05/31 05:07:45;;;;;;;16.95;5.68;;;;;;;;;;5111291;28;20359;-82
2021/05/31 05:10:17;;;;;;;8.40;5.13;;;;;;;;;;5093061;28;20370;-83
2021/05/31 05:12:43;;;;;;;6.32;4.80;;;;;;;;;;5111313;28;20378;-82
2021/05/31 05:15:09;;;;;;;7.15;5.25;;;;;;;;;;5110881;28;20373;-81
2021/05/31 05:17:35;;;;;;;6.97;4.78;;;;;;;;;;5092766;28;20432;-81
2021/05/31 05:20:01;;;;;;;6.53;4.63;;;;;;;;;;5110765;28;20407;-83
2021/05/31 05:22:27;;;;;;;7.85;4.75;;;;;;;;;;5110780;28;20737;-83
2021/05/31 05:24:53;;;;;;;8.27;5.22;;;;;;;;;;5110790;28;20370;-83
2021/05/31 05:27:19;;;;;;;6.90;4.78;;;;;;;;;;5092591;28;20770;-83
2021/05/31 05:29:46;;;;;;;16.65;5.43;;;;;;;;;;5111169;28;20386;-82
2021/05/31 05:32:12;;;;;;;31.88;6.10;;;;;;;;;;5111033;28;20371;-83
2021/05/31 05:34:38;;;;;;;53.15;8.88;;;;;;;;;;5110607;28;20371;-83
2021/05/31 05:37:15;;;;;;;8.07;4.97;;;;;;;;;;5110865;28;20454;-82
2021/05/31 05:42:45;;;;;;;7.87;5.40;;;;;;;;;;5110840;28;20482;-82
2021/05/31 05:45:45;;;;;;;6.97;4.90;;;;;;;;;;5092190;28;20371;-82
2021/05/31 05:48:11;;;;;;;10.30;5.47;;;;;;;;;;5092469;28;20371;-83
2021/05/31 05:50:37;;;;;;;7.85;5.05;;;;;;;;;;5110900;28;20377;-81
2021/05/31 05:53:03;;;;;;;9.45;5.53;;;;;;;;;;5110741;28;20365;-83
2021/05/31 05:55:29;;;;;;;7.00;5.15;;;;;;;;;;5110599;28;20358;-83
2021/05/31 05:57:55;;;;;;;7.63;5.63;;;;;;;;;;5110701;28;20382;-80
2021/05/31 06:00:23;;;;;;;8.02;5.45;;;;;;;;;;5110466;28;20402;-81
2021/05/31 06:02:49;;;;;;;22.00;6.35;;;;;;;;;;5110479;28;20374;-83
2021/05/31 06:05:16;;;;;;;6.72;5.25;;;;;;;;;;5110646;28;20458;-80
2021/05/31 06:07:42;;;;;;;8.80;5.13;;;;;;;;;;5110522;28;20362;-83
2021/05/31 06:10:08;;;;;;;7.13;4.97;;;;;;;;;;5092031;28;20385;-83
2021/05/31 06:12:34;;;;;;;8.75;5.32;;;;;;;;;;5086865;28;20519;-83
2021/05/31 06:15:00;;;;;;;7.00;4.75;;;;;;;;;;5110264;28;20469;-85
2021/05/31 06:17:26;;;;;;;8.75;4.75;;;;;;;;;;5110062;28;20448;-82
2021/05/31 06:19:59;;;;;;;8.95;4.30;;;;;;;;;;5109971;28;21084;-81
2021/05/31 06:22:26;;;;;;;6.35;4.18;;;;;;;;;;5109952;28;20363;-82
2021/05/31 06:24:51;;;;;;;8.38;4.45;;;;;;;;;;5110020;28;20367;-84
2021/05/31 06:27:17;;;;;;;5.80;4.20;;;;;;;;;;5088928;28;20380;-84
2021/05/31 06:29:43;;;;;;;6.15;4.55;;;;;;;;;;5098734;28;20398;-84
2021/05/31 06:32:09;;;;;;;5.53;4.00;;;;;;;;;;5109894;28;20370;-82
2021/05/31 06:34:35;;;;;;;8.07;4.55;;;;;;;;;;5101435;28;20924;-82
2021/05/31 06:37:01;;;;;;;14.52;4.63;;;;;;;;;;5106965;28;20407;-80
2021/05/31 06:39:27;;;;;;;7.90;4.10;;;;;;;;;;5107164;28;20398;-82
2021/05/31 06:41:53;;;;;;;5.60;3.97;;;;;;;;;;5109446;28;20370;-83
2021/05/31 06:44:19;;;;;;;6.17;4.40;;;;;;;;;;5086509;28;20727;-82
2021/05/31 06:46:45;;;;;;;6.93;3.80;;;;;;;;;;5089655;28;20415;-83
2021/05/31 06:49:12;;;;;;;7.17;4.23;;;;;;;;;;5091998;28;20375;-83
2021/05/31 06:51:38;;;;;;;6.50;3.88;;;;;;;;;;5109362;28;20361;-82
2021/05/31 06:54:04;;;;;;;5.40;3.88;;;;;;;;;;5106609;28;20380;-84
2021/05/31 06:56:30;;;;;;;7.15;4.35;;;;;;;;;;5071103;28;20376;-82
2021/05/31 06:58:56;;;;;;;6.72;4.03;;;;;;;;;;5089212;28;20787;-85
2021/05/31 07:01:22;;;;;;;5.57;3.70;;;;;;;;;;5109449;28;20894;-81
2021/05/31 07:03:48;;;;;;;10.13;4.30;;;;;;;;;;5108985;28;20371;-81
2021/05/31 07:06:14;;;;;;;6.75;3.97;;;;;;;;;;5088998;28;20789;-81
2021/05/31 07:08:40;;;;;;;6.93;4.38;;;;;;;;;;5088480;28;20838;-83
2021/05/31 07:11:12;;;;;;;7.10;4.20;;;;;;;;;;5107219;28;20378;-83
2021/05/31 07:13:38;;;;;;;5.90;3.88;;;;;;;;;;5091174;28;20379;-84
2021/05/31 07:16:04;;;;;;;5.82;3.85;;;;;;;;;;5090284;28;20380;-84
2021/05/31 07:18:30;;;;;;;8.07;4.30;;;;;;;;;;5089061;28;20367;-85
2021/05/31 07:20:56;;;;;;;5.57;3.97;;;;;;;;;;5105007;28;20506;-83
2021/05/31 07:23:22;;;;;;;7.65;3.58;;;;;;;;;;5109118;28;20576;-86
2021/05/31 07:25:48;;;;;;;6.72;4.43;;;;;;;;;;5092420;28;20842;-81
2021/05/31 07:28:15;;;;;;;6.93;4.05;;;;;;;;;;5099504;28;20372;-84
2021/05/31 07:30:41;;;;;;;6.72;4.05;;;;;;;;;;5085307;28;20465;-84
2021/05/31 07:33:10;;;;;;;6.38;4.30;;;;;;;;;;5100291;28;20476;-86
2021/05/31 07:35:37;;;;;;;28.45;5.75;;;;;;;;;;5109859;28;20378;-82
2021/05/31 07:38:04;;;;;;;7.82;4.10;;;;;;;;;;5092604;28;20773;-82
2021/05/31 07:40:30;;;;;;;6.72;3.85;;;;;;;;;;5094457;28;20395;-86
2021/05/31 07:42:56;;;;;;;6.50;3.97;;;;;;;;;;5113081;28;20359;-85
2021/05/31 07:45:22;;;;;;;7.03;3.90;;;;;;;;;;5099250;28;20738;-87
2021/05/31 07:47:48;;;;;;;107.43;13.80;;;;;;;;;;5113144;28;20362;-84
2021/05/31 07:50:15;;;;;;;14.27;4.88;;;;;;;;;;5107824;27;20921;-87
2021/05/31 07:52:41;;;;;;;6.97;3.90;;;;;;;;;;5113198;28;20960;-81
2021/05/31 07:55:10;;;;;;;9.53;4.17;;;;;;;;;;5112556;28;20390;-82
2021/05/31 07:57:36;;;;;;;5.75;3.75;;;;;;;;;;5113426;28;20406;-88
2021/05/31 08:00:04;;;;;;;46.30;6.35;;;;;;;;;;5101637;27;20437;-89
2021/05/31 08:02:30;;;;;;;12.15;4.22;;;;;;;;;;5099736;27;20357;-85
2021/05/31 08:04:56;;;;;;;6.63;3.60;;;;;;;;;;5106176;28;20871;-88
2021/05/31 08:07:22;;;;;;;5.57;3.50;;;;;;;;;;5112911;28;20395;-86
2021/05/31 08:09:48;;;;;;;7.45;3.78;;;;;;;;;;5097096;28;20501;-86
2021/05/31 08:12:14;;;;;;;6.30;3.67;;;;;;;;;;5092544;28;20376;-90
2021/05/31 08:14:42;;;;;;;12.70;4.00;;;;;;;;;;5104400;28;20736;-86
2021/05/31 08:17:09;;;;;;;8.53;3.60;;;;;;;;;;5094008;28;20787;-85
2021/05/31 08:19:35;;;;;;;7.30;3.22;;;;;;;;;;5096176;28;20427;-84
2021/05/31 08:22:04;;;;;;;11.25;3.95;;;;;;;;;;5104350;28;20925;-83
2021/05/31 08:24:30;;;;;;;7.65;3.22;;;;;;;;;;5073923;28;20818;-82
2021/05/31 08:26:56;;;;;;;5.93;3.08;;;;;;;;;;5088939;28;20418;-87
2021/05/31 08:29:22;;;;;;;5.75;2.90;;;;;;;;;;5112125;28;20361;-83
2021/05/31 08:31:49;;;;;;;9.38;4.07;;;;;;;;;;5097437;28;20479;-85
2021/05/31 08:34:15;;;;;;;6.43;3.20;;;;;;;;;;5100158;28;20370;-83
2021/05/31 08:36:42;;;;;;;4.70;2.70;;;;;;;;;;5111615;28;20450;-84
2021/05/31 08:39:09;;;;;;;5.32;2.60;;;;;;;;;;5107507;28;20433;-85
2021/05/31 08:41:35;;;;;;;5.18;2.83;;;;;;;;;;5083896;28;20403;-83
2021/05/31 08:44:01;;;;;;;5.88;2.83;;;;;;;;;;5111538;28;20435;-84
2021/05/31 08:46:28;;;;;;;5.57;2.97;;;;;;;;;;5110934;28;20372;-81
2021/05/31 08:48:54;;;;;;;6.63;3.00;;;;;;;;;;5111204;28;20406;-83
2021/05/31 08:51:21;;;;;;;8.57;2.67;;;;;;;;;;5110660;28;20379;-81
2021/05/31 08:53:47;;;;;;;3.50;2.42;;;;;;;;;;5111136;28;20375;-82
2021/05/31 08:56:14;;;;;;;5.30;2.75;;;;;;;;;;5111227;28;20459;-81
2021/05/31 08:58:40;;;;;;;4.78;2.63;;;;;;;;;;5110848;28;20366;-83
2021/05/31 09:01:06;;;;;;;4.00;2.72;;;;;;;;;;5110724;28;20459;-86
2021/05/31 09:03:32;;;;;;;5.37;2.50;;;;;;;;;;5110837;28;20367;-83
2021/05/31 09:05:59;;;;;;;7.17;2.53;;;;;;;;;;5091581;28;20379;-86
2021/05/31 09:08:25;;;;;;;9.67;2.70;;;;;;;;;;5111322;28;20374;-83
2021/05/31 09:10:55;;;;;;;3.50;2.22;;;;;;;;;;5092673;28;20436;-85
2021/05/31 09:13:26;;;;;;;13.05;2.92;;;20.90;82.30;;;;;;5110295;28;20783;-82
2021/05/31 09:16:05;;;;;;;38.17;6.37;;;21.10;81.50;;;;;;5110862;28;20379;-83
2021/05/31 09:18:31;;;;;;;6.75;2.30;;;21.10;75.10;;;;;;5109993;28;20452;-82
2021/05/31 09:20:57;;;;;;;41.15;5.15;;;20.80;76.20;;;;;;5109753;28;20893;-84
2021/05/31 09:23:23;;;;;;;4.88;2.50;;;20.80;75.10;;;;;;5109784;28;20407;-83
2021/05/31 09:25:48;;;;;;;5.60;2.40;;;20.70;76.10;;;;;;5109707;28;20398;-83
2021/05/31 09:28:14;;;;;;;8.55;2.30;;;20.80;74.30;;;;;;5091718;28;20395;-82
2021/05/31 09:30:42;;;;;;;4.43;2.63;;;20.90;77.30;;;;;;5091708;28;20370;-86
2021/05/31 09:33:12;;;;;;;6.30;2.80;;;20.70;74.60;;;;;;5110448;28;20398;-85
2021/05/31 09:35:40;;;;;;;5.43;2.67;;;20.60;78.60;;;;;;5110508;28;20381;-85
2021/05/31 09:38:06;;;;;;;6.55;2.30;;;20.80;79.80;;;;;;5110383;28;20419;-83
2021/05/31 09:40:32;;;;;;;4.32;2.42;;;20.60;76.70;;;;;;5110286;28;20854;-83
2021/05/31 09:43:00;;;;;;;11.67;3.50;;;20.30;78.30;;;;;;5110113;28;20852;-83
2021/05/31 09:45:29;;;;;;;6.27;2.47;;;20.40;79.40;;;;;;5109166;28;20401;-82
2021/05/31 09:47:59;;;;;;;5.05;2.35;;;20.60;74.50;;;;;;5091074;28;20733;-82
2021/05/31 09:50:28;;;;;;;5.75;2.10;;;20.30;75.30;;;;;;5106931;28;20371;-83
2021/05/31 09:53:14;;;;;;;3.72;2.35;;;20.40;76.40;;;;;;5107915;28;20383;-85
2021/05/31 09:55:45;;;;;;;3.22;2.25;;;20.60;73.40;;;;;;5109218;28;20941;-84
2021/05/31 09:58:16;;;;;;;6.15;2.70;;;20.80;74.50;;;;;;5090792;28;20436;-83
2021/05/31 10:00:49;;;;;;;4.95;2.50;;;20.90;74.90;;;;;;5105619;28;20773;-84
2021/05/31 10:03:34;;;;;;;5.03;2.50;;;20.90;74.00;;;;;;5089694;28;20378;-83
2021/05/31 10:06:13;;;;;;;4.45;2.28;;;21.00;75.90;;;;;;5106201;28;20414;-83
2021/05/31 10:08:40;;;;;;;6.25;2.60;;;21.10;71.80;;;;;;5104901;28;20396;-81
2021/05/31 10:11:06;;;;;;;80.57;9.68;;;21.30;75.10;;;;;;5104671;28;20386;-84
2021/05/31 10:13:32;;;;;;;4.60;2.40;;;21.40;75.10;;;;;;5105856;28;20391;-83
2021/05/31 10:16:01;;;;;;;4.00;2.30;;;21.50;71.00;;;;;;5107541;28;20464;-81
2021/05/31 10:18:30;;;;;;;13.35;3.42;;;21.50;74.10;;;;;;5107497;28;20891;-87
2021/05/31 10:20:57;;;;;;;49.63;5.72;;;21.60;75.00;;;;;;5089825;28;20802;-85
2021/05/31 10:23:23;;;;;;;20.95;4.50;;;21.70;72.40;;;;;;5107702;28;20390;-83
2021/05/31 10:25:56;;;;;;;36.15;5.82;;;21.70;75.40;;;;;;5086231;28;20371;-84
2021/05/31 10:28:26;;;;;;;4.07;2.40;;;21.80;74.20;;;;;;5106119;28;20410;-82
2021/05/31 10:31:04;;;;;;;7.78;2.33;;;22.10;74.50;;;;;;5106357;28;20406;-85
2021/05/31 10:33:33;;;;;;;8.05;2.65;;;22.20;73.90;;;;;;5084720;28;20388;-83
2021/05/31 10:36:21;;;;;;;4.40;2.63;;;22.10;73.60;;;;;;5089404;28;20382;-83
2021/05/31 10:38:50;;;;;;;9.90;3.03;;;21.80;71.00;;;;;;5105685;28;20848;-84
2021/05/31 10:41:20;;;;;;;11.35;2.70;;;21.60;73.80;;;;;;5107181;28;20478;-81
2021/05/31 10:43:56;;;;;;;3.80;2.60;;;21.30;70.30;;;;;;5089929;28;20714;-84
2021/05/31 10:46:27;;;;;;;3.80;2.63;;;20.80;68.70;;;;;;5107772;28;20477;-84
2021/05/31 10:48:53;;;;;;;4.28;2.40;;;20.60;73.40;;;;;;5106275;28;20386;-83
2021/05/31 10:51:22;;;;;;;7.03;2.83;;;20.70;71.90;;;;;;5088999;28;20375;-87
2021/05/31 10:53:48;;;;;;;6.40;2.88;;;20.90;71.90;;;;;;5106713;28;20387;-81
2021/05/31 10:56:17;;;;;;;8.18;2.80;;;21.00;72.40;;;;;;5106818;28;20386;-82
2021/05/31 10:58:46;;;;;;;5.55;2.65;;;21.00;71.50;;;;;;5089032;28;20370;-85
2021/05/31 11:01:14;;;;;;;6.47;2.72;;;21.10;76.10;;;;;;5077319;28;20442;-84
2021/05/31 11:04:02;;;;;;;4.38;2.75;;;21.30;77.30;;;;;;5071038;28;20403;-81
2021/05/31 11:06:33;;;;;;;4.57;2.35;;;21.20;70.10;;;;;;5097419;28;20737;-84
2021/05/31 11:09:15;;;;;;;4.82;2.65;;;21.00;71.00;;;;;;5109181;28;20378;-85
2021/05/31 11:11:44;;;;;;;5.30;2.45;;;21.00;74.80;;;;;;5090901;28;20386;-84
2021/05/31 11:14:10;;;;;;;5.50;2.50;;;21.10;73.80;;;;;;5109215;28;20474;-89
2021/05/31 11:16:57;;;;;;;4.53;2.42;;;21.10;72.90;;;;;;5109234;28;20375;-88
2021/05/31 11:19:37;;;;;;;3.42;2.13;;;21.10;70.20;;;;;;5108097;28;20398;-88
2021/05/31 11:22:16;;;;;;;3.05;2.10;;;20.80;71.90;;;;;;5086033;28;20386;-83
2021/05/31 11:24:55;;;;;;;3.80;2.40;;;20.90;69.90;;;;;;5106211;28;20409;-84
2021/05/31 11:27:26;;;;;;;4.55;2.20;;;20.90;72.70;;;;;;5103898;28;20876;-83
2021/05/31 11:29:52;;;;;;;5.82;2.53;;;20.90;72.20;;;;;;5086058;28;20386;-85
2021/05/31 11:32:19;;;;;;;4.13;2.30;;;21.00;71.30;;;;;;5107684;28;20929;-90
2021/05/31 11:34:56;;;;;;;2.78;1.92;;;21.20;74.60;;;;;;5090563;28;20390;-84
2021/05/31 11:37:23;;;;;;;5.00;2.03;;;21.20;67.30;;;;;;5109095;28;20386;-86
2021/05/31 11:39:49;;;;;;;48.70;5.25;;;21.20;68.30;;;;;;5108413;28;20438;-86
2021/05/31 11:42:16;;;;;;;3.08;1.70;;;21.20;68.10;;;;;;5108801;28;20367;-86
2021/05/31 11:44:50;;;;;;;2.93;1.70;;;21.20;62.90;;;;;;5090090;28;20872;-89
2021/05/31 11:47:21;;;;;;;2.67;2.00;;;21.00;62.80;;;;;;5106174;28;20415;-87
2021/05/31 11:49:47;;;;;;;2.97;1.77;;;21.00;65.90;;;;;;5088125;28;20466;-83
2021/05/31 11:52:13;;;;;;;2.97;2.08;;;21.10;65.70;;;;;;5106438;28;20545;-88
2021/05/31 11:54:41;;;;;;;6.88;2.00;;;21.10;63.80;;;;;;5088993;28;20429;-82
2021/05/31 11:57:12;;;;;;;16.13;3.28;;;21.10;66.70;;;;;;5105584;28;20378;-86
2021/05/31 11:59:43;;;;;;;3.65;2.00;;;21.10;69.00;;;;;;5091886;28;21026;-86
2021/05/31 12:02:11;;;;;;;3.60;1.80;;;21.30;67.20;;;;;;5091641;28;20910;-87
2021/05/31 12:04:37;;;;;;;5.20;1.80;;;21.30;63.90;;;;;;5109837;28;20379;-84
2021/05/31 12:07:07;;;;;;;3.03;1.92;;;21.40;65.60;;;;;;5118566;28;20423;-89
2021/05/31 12:09:37;;;;;;;3.72;1.95;;;21.40;66.80;;;;;;5108748;28;20766;-84
2021/05/31 12:12:03;;;;;;;4.13;1.85;;;21.40;63.50;;;;;;5109342;28;20367;-89
2021/05/31 12:14:29;;;;;;;4.47;1.73;;;21.30;63.40;;;;;;5091506;28;20386;-93
2021/05/31 12:16:57;;;;;;;2.13;1.80;;;21.20;64.00;;;;;;5109158;28;20367;-85
2021/05/31 12:19:25;;;;;;;3.13;1.77;;;21.10;62.40;;;;;;5108819;28;20438;-91
2021/05/31 12:21:57;;;;;;;8.80;2.20;;;21.10;62.30;;;;;;5090674;28;20436;-85
2021/05/31 12:24:43;;;;;;;4.60;1.90;;;21.30;66.90;;;;;;5109695;28;20375;-87
2021/05/31 12:27:08;;;;;;;2.40;1.65;;;21.30;62.20;;;;;;5112445;28;20389;-86
2021/05/31 12:29:48;;;;;;;3.07;1.70;;;21.30;60.30;;;;;;5114009;28;20375;-90
2021/05/31 12:32:16;;;;;;;4.03;1.77;;;21.20;61.60;;;;;;5095215;28;20760;-84
2021/05/31 12:34:42;;;;;;;3.88;1.95;;;21.30;62.20;;;;;;5112751;28;20446;-87
2021/05/31 12:37:12;;;;;;;3.28;1.83;;;21.20;62.40;;;;;;5113921;28;20450;-91
2021/05/31 12:39:49;;;;;;;3.03;1.60;;;21.30;64.10;;;;;;5112255;28;20429;-87
2021/05/31 12:42:23;;;;;;;2.80;1.80;;;21.50;62.60;;;;;;5105279;27;20466;-87
2021/05/31 12:44:50;;;;;;;2.87;1.70;;;21.70;60.00;;;;;;5103462;27;20401;-90
2021/05/31 12:47:18;;;;;;;3.17;1.87;;;21.60;58.80;;;;;;5101505;28;20443;-85
2021/05/31 12:49:46;;;;;;;6.35;1.85;;;21.50;60.20;;;;;;5101662;28;20430;-84
2021/05/31 12:52:22;;;;;;;4.05;1.88;;;21.40;60.20;;;;;;5083286;28;20395;-84
2021/05/31 12:55:02;;;;;;;5.20;1.85;;;21.40;62.00;;;;;;5099578;28;20475;-83
2021/05/31 12:57:44;;;;;;;2.72;1.70;;;21.40;60.90;;;;;;5093742;28;20380;-85
2021/05/31 13:00:13;;;;;;;3.47;1.90;;;21.50;61.40;;;;;;5098290;27;20923;-87
2021/05/31 13:02:45;;;;;;;2.83;1.75;;;21.40;62.70;;;;;;5098030;28;20412;-87
2021/05/31 13:05:13;;;;;;;4.07;1.90;;;21.40;64.10;;;;;;5091769;28;20378;-87
2021/05/31 13:07:41;;;;;;;3.72;1.90;;;21.50;63.70;;;;;;5077657;28;20379;-85
2021/05/31 13:10:21;;;;;;;2.47;1.70;;;21.70;64.20;;;;;;5103330;28;20434;-90
2021/05/31 13:13:09;;;;;;;2.60;1.70;;;21.60;64.10;;;;;;5106431;27;20387;-88
2021/05/31 13:15:54;;;;;;;4.28;2.20;;;21.70;67.60;;;;;;5086219;28;20427;-87
2021/05/31 13:18:29;;;;;;;3.72;1.90;;;21.90;69.00;;;;;;5086658;28;20444;-85
2021/05/31 13:20:56;;;;;;;3.38;1.80;;;22.10;70.40;;;;;;5087654;28;20761;-88
2021/05/31 13:23:27;;;;;;;7.43;2.03;;;22.10;64.50;;;;;;5101583;27;20387;-84
2021/05/31 13:25:55;;;;;;;3.05;1.67;;;22.00;66.10;;;;;;5089134;28;20391;-89
2021/05/31 13:28:30;;;;;;;4.15;2.10;;;22.10;65.00;;;;;;5105781;28;20386;-86
2021/05/31 13:30:59;;;;;;;3.65;1.80;;;22.00;64.50;;;;;;5089306;27;20878;-88
2021/05/31 13:33:25;;;;;;;9.52;2.28;;;21.90;63.60;;;;;;5105362;28;20469;-84
2021/05/31 13:35:53;;;;;;;3.10;1.58;;;21.90;67.60;;;;;;5088489;27;20436;-85
2021/05/31 13:38:19;;;;;;;4.80;2.08;;;21.90;68.50;;;;;;5111606;27;20520;-84
2021/05/31 13:40:49;;;;;;;4.40;1.85;;;22.00;64.70;;;;;;5111167;27;20483;-85
2021/05/31 13:43:21;;;;;;;4.28;1.92;;;22.00;63.20;;;;;;5127886;27;20408;-85
2021/05/31 13:45:51;;;;;;;5.60;1.85;;;21.80;65.00;;;;;;5123863;27;20430;-83
2021/05/31 13:48:18;;;;;;;3.30;1.70;;;21.80;65.10;;;;;;5123580;27;20387;-84
2021/05/31 13:50:46;;;;;;;2.80;1.58;;;21.90;66.60;;;;;;5107061;28;20374;-82
2021/05/31 13:53:12;;;;;;;2.30;1.70;;;21.90;64.60;;;;;;5107488;28;20465;-84
2021/05/31 13:55:38;;;;;;;2.13;1.55;;;21.80;64.30;;;;;;5107787;28;20809;-82
2021/05/31 13:58:05;;;;;;;2.28;1.58;;;21.70;65.10;;;;;;5107191;28;20480;-85
2021/05/31 14:00:32;;;;;;;7.57;1.98;;;21.80;64.30;;;;;;5107935;28;20395;-84
2021/05/31 14:02:58;;;;;;;3.43;1.57;;;21.70;64.70;;;;;;5106584;28;20382;-85
2021/05/31 14:05:27;;;;;;;4.90;1.65;;;21.80;64.30;;;;;;5099562;28;20387;-82
2021/05/31 14:07:56;;;;;;;9.70;2.30;;;22.00;65.70;;;;;;5122885;27;20380;-86
2021/05/31 14:10:22;;;;;;;3.90;1.55;;;22.00;63.40;;;;;;5094851;27;20364;-84
2021/05/31 14:12:49;;;;;;;2.75;1.40;;;22.10;61.40;;;;;;5119306;27;20381;-84